Bookmark and Share
Track history (hours):
 

Lolani

More information available from US FCC via Universal Licensing System and Coast Guard Vessel Documentation Center.

Last reported at 2014-Apr-08 20:32 UTC. Time now 2014-Apr-16 19:14 UTC.
Position N 48°50' W 123°24'.

Type: Sailing vessel. MMSI: 316026565.

NotesDate/timePositionNaut miles runAvg speedWind from/ knotsBaromVisibWave heightAir tempDewpointWater temp
2014-Apr-08 20:32N 48°50' W 123°24'0 0.4
2014-Apr-08 19:23N 48°49' W 123°23'0 0.0
2014-Apr-08 18:32N 48°49' W 123°23'0 0.0
2014-Apr-08 17:23N 48°49' W 123°23'0 0.0
2014-Apr-08 16:29N 48°49' W 123°23'6 0.1
2014-Apr-06 23:16N 48°55' W 123°20'7 6.3
2014-Apr-06 22:04N 48°60' W 123°28'6 6.1
2014-Apr-06 21:06N 49°04' W 123°34'3 5.9
2014-Apr-06 20:32N 49°07' W 123°38'9 6.3
2014-Apr-06 19:08N 49°13' W 123°47'4 6.4
2014-Apr-06 18:33N 49°16' W 123°51'7 6.7
2014-Apr-06 17:33N 49°20' W 123°58'7 6.6
2014-Apr-06 16:33N 49°25' W 124°05'6 6.4
2014-Apr-06 15:32N 49°29' W 124°13'0 0.0
2014-Apr-06 00:32N 49°29' W 124°12'0 0.0
2014-Apr-05 23:32N 49°29' W 124°12'0 0.0
2014-Apr-05 22:32N 49°29' W 124°12'0 0.0
2014-Apr-05 21:32N 49°29' W 124°12'0 0.0
2014-Apr-05 20:32N 49°29' W 124°12'0 0.0
2014-Apr-05 19:32N 49°29' W 124°12'0 0.0
2014-Apr-05 18:32N 49°29' W 124°12'0 0.0
2014-Apr-05 17:32N 49°29' W 124°12'1 0.0
2014-Apr-04 23:33N 49°30' W 124°13'6 5.7
2014-Apr-04 22:33N 49°34' W 124°20'6 6.2
2014-Apr-04 21:33N 49°37' W 124°28'12 3.9
2014-Apr-04 18:32N 49°48' W 124°35'  
2014-Apr-01 22:33N 49°48' W 124°36'0 0.5
2014-Apr-01 21:33N 49°48' W 124°36'0 0.3
2014-Apr-01 20:17N 49°49' W 124°36'0 0.6
2014-Apr-01 19:33N 49°48' W 124°36'6 0.1
2014-Mar-30 20:31N 49°46' W 124°27'6 6.4
2014-Mar-30 19:34N 49°44' W 124°18'6 6.3
2014-Mar-30 18:34N 49°46' W 124°09'7 6.8
2014-Mar-30 17:32N 49°48' W 123°58'6 6.2
2014-Mar-30 16:34N 49°54' W 123°55'7 6.3
2014-Mar-30 15:32N 49°60' W 123°58'8 7.1
2014-Mar-30 14:29N 50°05' W 123°49'  

Dump ship's entire track history

sailing weather and tide predictions

Lolani — WDF3586 — position and weather